Time;durP1;ratioP1;P1;durP2;ratioP2;P2;SDS_P1;SDS_P2;PMS_P1;PMS_P2;Temp;Humidity;BMP_temperature;BMP_pressure;BME280_temperature;BME280_humidity;BME280_pressure;Samples;Min_cycle;Max_cycle;Signal;HPM_P1;HPM_P2
2023/11/14 00:00:04;;;;;;;1.27;1.02;;;;;;;4.10;100.00;99642.25;5100224;28;20028;-67
2023/11/14 00:02:29;;;;;;;1.50;1.20;;;;;;;3.99;100.00;99645.41;5101091;28;20107;-67
2023/11/14 00:04:55;;;;;;;1.42;1.33;;;;;;;3.98;100.00;99646.41;5101641;28;20548;-67
2023/11/14 00:07:20;;;;;;;1.70;1.50;;;;;;;3.97;100.00;99639.44;5099390;28;20059;-68
2023/11/14 00:09:47;;;;;;;1.70;1.30;;;;;;;3.78;100.00;99642.66;5101662;28;20028;-67
2023/11/14 00:12:13;;;;;;;1.20;1.10;;;;;;;4.02;100.00;99638.88;5100139;28;20024;-67
2023/11/14 00:14:42;;;;;;;1.80;1.30;;;;;;;3.93;100.00;99643.47;5100942;28;20032;-67
2023/11/14 00:17:08;;;;;;;1.25;1.00;;;;;;;3.67;100.00;99642.09;5099012;28;20104;-67
2023/11/14 00:19:34;;;;;;;1.27;1.17;;;;;;;3.92;100.00;99637.31;5098058;28;20456;-68
2023/11/14 00:21:59;;;;;;;1.58;1.48;;;;;;;4.14;100.00;99643.56;5100317;28;20077;-67
2023/11/14 00:24:24;;;;;;;1.90;1.60;;;;;;;4.23;100.00;99633.63;5082544;28;20028;-67
2023/11/14 00:26:50;;;;;;;2.72;1.50;;;;;;;4.23;100.00;99628.28;5100146;28;20032;-68
2023/11/14 00:29:15;;;;;;;1.80;1.50;;;;;;;4.22;100.00;99623.97;5099198;28;20085;-67
2023/11/14 00:31:40;;;;;;;1.60;1.40;;;;;;;4.13;100.00;99625.91;5093144;28;20131;-67
2023/11/14 00:34:06;;;;;;;1.90;1.70;;;;;;;4.06;100.00;99635.66;5096419;28;20028;-67
2023/11/14 00:36:31;;;;;;;2.00;1.48;;;;;;;4.06;100.00;99626.84;5100577;28;20031;-67
2023/11/14 00:38:59;;;;;;;3.97;1.60;;;;;;;3.92;100.00;99612.56;5097364;28;20032;-67
2023/11/14 00:41:27;;;;;;;1.83;1.67;;;;;;;4.05;100.00;99626.03;5098017;28;20024;-67
2023/11/14 00:43:52;;;;;;;2.05;1.85;;;;;;;4.06;100.00;99621.53;5099106;28;20034;-67
2023/11/14 00:46:18;;;;;;;1.95;1.75;;;;;;;4.27;100.00;99615.41;5100176;28;20051;-68
2023/11/14 00:48:46;;;;;;;2.63;1.77;;;;;;;4.40;100.00;99612.91;5100017;28;20110;-68
2023/11/14 00:51:11;;;;;;;2.22;2.03;;;;;;;4.31;100.00;99617.53;5101424;28;20107;-68
2023/11/14 00:53:36;;;;;;;2.20;2.00;;;;;;;4.32;100.00;99610.38;5100108;28;20185;-67
2023/11/14 00:56:02;;;;;;;2.13;1.80;;;;;;;4.30;100.00;99612.38;5082373;28;20040;-68
2023/11/14 00:58:28;;;;;;;7.70;2.20;;;;;;;4.33;100.00;99602.19;5099013;28;20454;-68
2023/11/14 01:00:53;;;;;;;2.10;1.90;;;;;;;4.40;100.00;99602.25;5099312;28;20032;-67
2023/11/14 01:03:21;;;;;;;2.90;2.20;;;;;;;4.51;100.00;99592.97;5083130;28;20032;-68
2023/11/14 01:05:46;;;;;;;2.53;1.98;;;;;;;4.19;100.00;99579.09;5100091;28;20064;-68
2023/11/14 01:08:12;;;;;;;3.35;2.20;;;;;;;4.53;100.00;99589.06;5098970;28;20040;-67
2023/11/14 01:10:38;;;;;;;2.30;2.10;;;;;;;4.53;100.00;99596.25;5081540;28;20178;-68
2023/11/14 01:13:04;;;;;;;2.67;2.13;;;;;;;4.37;100.00;99594.63;5094997;28;20027;-68
2023/11/14 01:15:29;;;;;;;2.03;1.80;;;;;;;4.12;100.00;99596.84;5098083;28;20039;-68
2023/11/14 01:17:55;;;;;;;2.30;1.90;;;;;;;4.03;100.00;99580.13;5100168;28;20538;-67
2023/11/14 01:20:21;;;;;;;2.25;2.05;;;;;;;4.25;100.00;99594.31;5081525;28;20031;-67
2023/11/14 01:22:47;;;;;;;1.92;1.73;;;;;;;4.15;100.00;99597.28;5099923;28;20403;-68
2023/11/14 01:25:12;;;;;;;2.20;1.85;;;;;;;4.25;100.00;99567.69;5094234;28;20478;-68
2023/11/14 01:27:40;;;;;;;3.75;1.70;;;;;;;4.21;100.00;99575.22;5102712;28;20027;-67
2023/11/14 01:30:07;;;;;;;2.10;1.90;;;;;;;4.16;100.00;99585.59;5110281;28;20020;-68
2023/11/14 01:32:32;;;;;;;3.78;1.90;;;;;;;4.18;100.00;99566.81;5110296;28;20033;-68
2023/11/14 01:34:58;;;;;;;2.10;1.80;;;;;;;4.45;100.00;99586.53;5087741;28;20047;-67
2023/11/14 01:37:23;;;;;;;2.15;1.95;;;;;;;4.12;100.00;99588.84;5099333;28;20034;-67
2023/11/14 01:39:49;;;;;;;3.65;2.30;;;;;;;4.39;100.00;99587.28;5099986;28;20036;-68
2023/11/14 01:42:15;;;;;;;2.55;2.28;;;;;;;4.16;100.00;99580.28;5098683;28;20059;-67
2023/11/14 01:44:40;;;;;;;2.45;2.08;;;;;;;4.02;100.00;99567.84;5099312;28;20500;-67
2023/11/14 01:47:06;;;;;;;2.47;2.22;;;;;;;3.98;100.00;99571.91;5065987;28;20028;-67
2023/11/14 01:49:31;;;;;;;2.50;2.30;;;;;;;4.02;100.00;99561.69;5094103;28;20119;-67
2023/11/14 01:51:58;;;;;;;2.38;2.17;;;;;;;4.06;100.00;99542.50;5084070;28;20146;-67
2023/11/14 01:54:24;;;;;;;2.53;2.10;;;;;;;3.86;100.00;99563.56;5099731;28;20104;-67
2023/11/14 01:56:50;;;;;;;3.42;2.70;;;;;;;3.90;100.00;99556.84;5101162;28;20024;-68
2023/11/14 01:59:16;;;;;;;3.85;2.88;;;;;;;4.05;100.00;99558.66;5082567;28;20056;-67
2023/11/14 02:01:42;;;;;;;2.80;2.60;;;;;;;3.75;100.00;99537.44;5082394;28;20016;-67
2023/11/14 02:04:12;;;;;;;2.60;2.40;;;;;;;3.73;100.00;99542.94;5082510;28;20028;-68
2023/11/14 02:06:38;;;;;;;2.70;2.50;;;;;;;3.71;100.00;99544.97;5099053;28;20449;-67
2023/11/14 02:09:06;;;;;;;2.90;2.30;;;;;;;3.76;100.00;99547.06;5098489;28;20032;-67
2023/11/14 02:11:32;;;;;;;3.00;2.70;;;;;;;4.03;100.00;99526.91;5099449;28;20024;-67
2023/11/14 02:13:58;;;;;;;3.15;2.75;;;;;;;3.91;100.00;99541.72;5098881;28;20039;-67
2023/11/14 02:16:24;;;;;;;3.03;2.70;;;;;;;3.78;100.00;99539.72;5100063;28;20024;-67
2023/11/14 02:18:50;;;;;;;2.85;2.60;;;;;;;3.87;100.00;99532.44;5098382;28;20032;-68
2023/11/14 02:21:15;;;;;;;3.67;2.70;;;;;;;3.79;100.00;99537.88;5097594;28;20043;-68
2023/11/14 02:23:44;;;;;;;3.08;2.45;;;;;;;3.55;100.00;99499.94;5102017;28;20831;-67
2023/11/14 02:26:10;;;;;;;4.38;2.70;;;;;;;3.84;100.00;99522.16;5103270;28;20027;-68
2023/11/14 02:28:35;;;;;;;2.83;2.50;;;;;;;3.65;100.00;99524.41;5101845;28;20024;-68
2023/11/14 02:31:02;;;;;;;3.90;2.53;;;;;;;3.72;100.00;99524.50;5101078;28;20066;-67
2023/11/14 02:33:27;;;;;;;2.65;2.35;;;;;;;3.53;100.00;99508.09;5101417;28;20050;-68
2023/11/14 02:35:52;;;;;;;2.75;2.50;;;;;;;3.81;100.00;99510.09;5101403;28;20522;-67
2023/11/14 02:38:21;;;;;;;2.58;2.38;;;;;;;3.73;100.00;99518.97;5102290;28;20066;-67
2023/11/14 02:40:48;;;;;;;2.13;1.88;;;;;;;3.52;100.00;99518.94;5100401;28;20032;-67
2023/11/14 02:43:14;;;;;;;2.88;2.65;;;;;;;3.58;100.00;99504.91;5099790;28;20493;-67
2023/11/14 02:45:42;;;;;;;2.03;1.83;;;;;;;3.52;100.00;99502.97;5100161;28;20024;-68
2023/11/14 02:48:08;;;;;;;2.90;2.60;;;;;;;3.57;100.00;99505.88;5082185;28;20037;-67
2023/11/14 02:50:54;;;;;;;2.60;2.40;;;;;;;3.55;100.00;99507.09;5098856;28;20534;-67
2023/11/14 02:53:21;;;;;;;2.90;2.50;;;;;;;3.73;100.00;99508.34;5097435;28;20043;-68
2023/11/14 02:55:47;;;;;;;2.20;2.00;;;;;;;3.52;100.00;99481.69;5101794;28;20059;-67
2023/11/14 02:58:13;;;;;;;2.22;1.83;;;;;;;3.46;100.00;99504.53;5101873;28;20052;-68
2023/11/14 03:00:42;;;;;;;2.30;2.10;;;;;;;3.74;100.00;99504.69;5102137;28;20035;-67
2023/11/14 03:03:12;;;;;;;2.63;2.08;;;;;;;3.59;100.00;99487.09;5102686;28;20067;-68
2023/11/14 03:05:38;;;;;;;1.98;1.77;;;;;;;3.52;100.00;99505.63;5100713;28;20032;-67
2023/11/14 03:08:03;;;;;;;3.53;1.48;;;;;;;3.46;100.00;99515.16;5101687;28;20189;-68
2023/11/14 03:10:30;;;;;;;1.83;1.63;;;;;;;3.62;100.00;99510.66;5102797;28;20130;-67
2023/11/14 03:12:57;;;;;;;2.20;1.50;;;;;;;3.70;100.00;99513.22;5102221;28;20016;-67
2023/11/14 03:15:22;;;;;;;1.50;1.40;;;;;;;3.65;100.00;99502.31;5101914;28;20028;-67
2023/11/14 03:17:47;;;;;;;1.55;1.20;;;;;;;3.69;100.00;99508.91;5102939;28;20038;-67
2023/11/14 03:20:13;;;;;;;1.67;1.20;;;;;;;3.68;100.00;99505.44;5103043;28;20028;-67
2023/11/14 03:22:38;;;;;;;1.10;1.00;;;;;;;3.58;100.00;99499.56;5103450;28;20032;-67
2023/11/14 03:25:04;;;;;;;1.02;0.90;;;;;;;3.55;100.00;99507.09;5102543;28;20705;-68
2023/11/14 03:27:29;;;;;;;0.90;0.80;;;;;;;3.67;100.00;99494.97;5101067;28;20028;-68
2023/11/14 03:29:55;;;;;;;0.90;0.80;;;;;;;3.59;100.00;99505.72;5101802;28;20028;-67
2023/11/14 03:32:20;;;;;;;0.98;0.70;;;;;;;3.67;100.00;99506.41;5101450;28;20117;-67
2023/11/14 03:34:46;;;;;;;2.22;0.80;;;;;;;3.64;100.00;99482.88;5100953;28;20032;-67
2023/11/14 03:37:12;;;;;;;0.70;0.60;;;;;;;3.49;100.00;99488.22;5082569;28;20032;-67
2023/11/14 03:39:41;;;;;;;0.98;0.63;;;;;;;3.47;100.00;99500.84;5097547;28;20027;-67
2023/11/14 03:42:06;;;;;;;0.80;0.50;;;;;;;3.53;100.00;99489.47;5096266;28;20028;-67
2023/11/14 03:44:31;;;;;;;0.70;0.38;;;;;;;3.43;100.00;99498.75;5083554;28;20363;-67
2023/11/14 03:46:57;;;;;;;1.65;0.50;;;;;;;3.43;100.00;99520.03;5083297;28;20081;-67
2023/11/14 03:49:22;;;;;;;0.75;0.50;;;;;;;3.46;100.00;99507.19;5100199;28;20028;-67
2023/11/14 03:51:47;;;;;;;0.38;0.38;;;;;;;3.48;100.00;99507.84;5100798;28;20565;-68
2023/11/14 03:54:15;;;;;;;0.47;0.35;;;;;;;3.63;100.00;99507.00;5100281;28;20024;-67
2023/11/14 03:56:41;;;;;;;0.55;0.55;;;;;;;3.57;100.00;99510.38;5106716;28;20042;-68
2023/11/14 03:59:06;;;;;;;0.40;0.28;;;;;;;3.66;100.00;99507.44;5112685;28;20099;-68
2023/11/14 04:01:31;;;;;;;0.90;0.40;;;;;;;3.58;100.00;99510.22;5113606;28;20057;-68
2023/11/14 04:03:57;;;;;;;0.40;0.30;;;;;;;3.37;100.00;99518.09;5105116;28;20036;-67
2023/11/14 04:06:22;;;;;;;1.42;0.40;;;;;;;3.38;100.00;99512.63;5100899;28;20016;-67
2023/11/14 04:08:48;;;;;;;0.35;0.32;;;;;;;3.35;100.00;99513.00;5081894;28;20654;-67
2023/11/14 04:11:13;;;;;;;0.65;0.40;;;;;;;3.51;100.00;99514.63;5100876;28;20085;-67
2023/11/14 04:13:39;;;;;;;1.15;0.65;;;;;;;3.56;100.00;99504.25;5082911;28;20032;-67
2023/11/14 04:16:05;;;;;;;0.47;0.40;;;;;;;3.41;100.00;99527.34;5099363;28;20028;-67
2023/11/14 04:18:30;;;;;;;0.32;0.32;;;;;;;3.45;100.00;99520.69;5100301;28;20040;-68
2023/11/14 04:20:56;;;;;;;1.60;0.57;;;;;;;3.55;100.00;99513.25;5100775;28;20035;-67
2023/11/14 04:23:21;;;;;;;0.98;0.60;;;;;;;3.61;100.00;99522.28;5098834;28;20031;-67
2023/11/14 04:25:46;;;;;;;1.08;0.70;;;;;;;3.43;100.00;99530.66;5100597;28;20024;-67
2023/11/14 04:28:12;;;;;;;0.95;0.70;;;;;;;3.28;100.00;99518.22;5099709;28;20085;-67
2023/11/14 04:30:37;;;;;;;1.05;0.80;;;;;;;3.40;100.00;99523.88;5097258;28;20032;-67
2023/11/14 04:33:03;;;;;;;1.10;0.90;;;;;;;3.28;100.00;99536.81;5096434;28;20077;-67
2023/11/14 04:35:29;;;;;;;0.70;0.70;;;;;;;3.44;100.00;99527.81;5092872;28;20442;-67
2023/11/14 04:37:56;;;;;;;1.10;1.00;;;;;;;3.38;100.00;99511.78;5080199;28;20057;-67
2023/11/14 04:40:23;;;;;;;1.23;0.80;;;;;;;3.56;100.00;99538.81;5098197;28;20029;-67
2023/11/14 04:42:48;;;;;;;3.40;1.20;;;;;;;3.36;100.00;99537.75;5100699;28;20103;-67
2023/11/14 04:45:14;;;;;;;1.27;1.08;;;;;;;3.40;100.00;99542.50;5097803;28;20064;-67
2023/11/14 04:47:39;;;;;;;1.38;1.02;;;;;;;3.11;100.00;99516.72;5099992;28;20024;-67
2023/11/14 04:50:06;;;;;;;2.05;1.50;;;;;;;3.37;100.00;99516.28;5098267;28;20547;-67
2023/11/14 04:52:32;;;;;;;1.90;1.30;;;;;;;3.48;100.00;99549.56;5098122;28;20032;-67
2023/11/14 04:54:58;;;;;;;1.73;1.20;;;;;;;3.40;100.00;99542.50;5098947;28;20509;-67
2023/11/14 04:57:24;;;;;;;2.85;1.40;;;;;;;3.38;100.00;99541.88;5099690;28;20128;-67
2023/11/14 04:59:49;;;;;;;1.52;1.38;;;;;;;3.37;100.00;99552.66;5098684;28;20028;-67
2023/11/14 05:02:15;;;;;;;1.45;1.30;;;;;;;3.34;100.00;99548.53;5098911;28;20028;-67
2023/11/14 05:04:42;;;;;;;2.30;1.77;;;;;;;3.25;100.00;99557.63;5097407;28;20615;-67
2023/11/14 05:07:08;;;;;;;1.65;1.30;;;;;;;3.36;100.00;99562.50;5081848;28;20054;-67
2023/11/14 05:09:38;;;;;;;1.38;1.13;;;;;;;3.35;100.00;99560.03;5099126;28;20013;-67
2023/11/14 05:12:06;;;;;;;1.67;1.45;;;;;;;3.29;100.00;99573.03;5099943;28;20037;-67
2023/11/14 05:14:32;;;;;;;1.42;1.27;;;;;;;3.34;100.00;99553.03;5097806;28;20032;-67
2023/11/14 05:16:57;;;;;;;1.70;1.25;;;;;;;3.40;100.00;99577.06;5098367;28;20024;-68
2023/11/14 05:19:23;;;;;;;1.65;1.42;;;;;;;3.43;100.00;99558.09;5097155;28;20204;-67
2023/11/14 05:21:50;;;;;;;1.00;0.90;;;;;;;3.72;100.00;99567.06;5099231;28;20067;-67
2023/11/14 05:24:16;;;;;;;2.28;1.50;;;;;;;3.56;100.00;99568.06;5098646;28;20652;-68
2023/11/14 05:26:41;;;;;;;1.23;1.13;;;;;;;3.43;100.00;99558.09;5096952;28;20657;-67
2023/11/14 05:29:08;;;;;;;1.33;1.02;;;;;;;3.38;100.00;99564.94;5094646;28;20039;-68
2023/11/14 05:31:34;;;;;;;2.95;0.95;;;;;;;3.45;100.00;99556.06;5094766;28;20667;-67
2023/11/14 05:34:00;;;;;;;1.25;1.10;;;;;;;3.44;100.00;99557.06;5097903;28;20024;-67
2023/11/14 05:36:25;;;;;;;1.05;1.00;;;;;;;3.50;100.00;99548.34;5098694;28;20035;-67
2023/11/14 05:38:51;;;;;;;1.00;0.80;;;;;;;3.51;100.00;99549.22;5097777;28;20024;-67
2023/11/14 05:41:16;;;;;;;1.15;0.98;;;;;;;3.69;100.00;99562.13;5097015;28;20096;-67
2023/11/14 05:43:42;;;;;;;1.30;0.93;;;;;;;3.68;100.00;99561.28;5098948;28;20024;-67
2023/11/14 05:46:08;;;;;;;1.20;0.90;;;;;;;3.57;100.00;99556.41;5098016;28;20043;-67
2023/11/14 05:48:34;;;;;;;1.45;0.85;;;;;;;3.43;100.00;99558.09;5097380;28;20043;-67
2023/11/14 05:50:59;;;;;;;0.88;0.82;;;;;;;3.47;100.00;99555.88;5096808;28;20043;-67
2023/11/14 05:53:24;;;;;;;0.68;0.68;;;;;;;3.51;100.00;99560.66;5097374;28;20028;-67
2023/11/14 05:55:50;;;;;;;0.70;0.70;;;;;;;3.74;100.00;99547.25;5098407;28;20051;-68
2023/11/14 05:58:15;;;;;;;0.80;0.80;;;;;;;3.52;100.00;99562.31;5095519;28;20067;-68
2023/11/14 06:00:41;;;;;;;1.10;0.80;;;;;;;3.44;100.00;99569.53;5104172;28;20442;-68
2023/11/14 06:03:06;;;;;;;0.80;0.70;;;;;;;3.16;100.00;99543.59;5086236;28;20119;-68
2023/11/14 06:05:31;;;;;;;0.90;0.65;;;;;;;3.40;100.00;99565.59;5104826;28;20024;-68
2023/11/14 06:07:57;;;;;;;0.82;0.70;;;;;;;3.37;99.84;99558.81;5104187;28;20024;-68
2023/11/14 06:10:22;;;;;;;1.10;0.77;;;;;;;3.59;100.00;99570.38;5102173;28;20024;-67
2023/11/14 06:12:47;;;;;;;0.73;0.50;;;;;;;3.49;99.77;99581.28;5101313;28;20028;-69
2023/11/14 06:15:14;;;;;;;0.57;0.40;;;;;;;3.40;99.67;99557.63;5103948;28;20035;-68
2023/11/14 06:17:39;;;;;;;0.60;0.52;;;;;;;3.47;99.89;99575.31;5084000;28;20031;-68
2023/11/14 06:20:07;;;;;;;0.90;0.60;;;;;;;3.42;99.33;99583.03;5099378;28;20040;-68
2023/11/14 06:22:32;;;;;;;0.55;0.50;;;;;;;3.55;100.00;99571.75;5106522;28;20020;-68
2023/11/14 06:24:59;;;;;;;0.57;0.40;;;;;;;3.04;99.62;99537.06;5104531;28;20031;-67
2023/11/14 06:27:25;;;;;;;0.70;0.60;;;;;;;3.42;99.93;99575.06;5102409;28;20039;-67
2023/11/14 06:29:50;;;;;;;0.50;0.50;;;;;;;3.36;100.00;99562.50;5100932;28;20060;-68
2023/11/14 06:32:16;;;;;;;0.80;0.50;;;;;;;3.30;100.00;99568.53;5101748;28;20089;-68
2023/11/14 06:34:41;;;;;;;0.60;0.50;;;;;;;3.52;99.03;99551.66;5102856;28;20045;-68
2023/11/14 06:37:07;;;;;;;0.93;0.50;;;;;;;3.40;99.44;99549.66;5102139;28;20035;-68
2023/11/14 06:39:32;;;;;;;1.67;0.80;;;;;;;3.44;99.87;99572.19;5100598;28;20036;-67
2023/11/14 06:41:58;;;;;;;1.55;0.70;;;;;;;3.37;100.00;99563.31;5101625;28;20026;-68
2023/11/14 06:44:24;;;;;;;0.70;0.60;;;;;;;3.16;100.00;99572.81;5101494;28;20027;-68
2023/11/14 06:46:49;;;;;;;3.03;0.60;;;;;;;3.27;99.66;99563.56;5101572;28;20093;-68
2023/11/14 06:49:15;;;;;;;3.45;0.52;;;;;;;3.16;99.78;99545.44;5101600;28;20797;-67
2023/11/14 06:51:40;;;;;;;0.98;0.60;;;;;;;3.59;98.96;99572.22;5098123;28;20063;-68
2023/11/14 06:54:06;;;;;;;0.60;0.50;;;;;;;3.49;98.77;99567.16;5083613;28;20095;-68
2023/11/14 06:56:31;;;;;;;0.57;0.55;;;;;;;3.24;99.57;99569.25;5076250;28;20085;-68
2023/11/14 06:58:57;;;;;;;1.27;0.70;;;;;;;3.22;99.86;99585.41;5065419;28;20498;-68
2023/11/14 07:01:22;;;;;;;0.75;0.60;;;;;;;3.44;99.39;99572.19;5099779;28;20043;-68
2023/11/14 07:03:49;;;;;;;2.22;0.60;;;;;;;3.32;98.42;99569.19;5100335;28;20572;-68
2023/11/14 07:06:16;;;;;;;0.50;0.50;;;;;;;3.57;98.30;99577.69;5098604;28;20036;-68
2023/11/14 07:08:42;;;;;;;0.70;0.60;;;;;;;3.49;97.15;99553.88;5100120;28;20039;-68
2023/11/14 07:11:10;;;;;;;0.70;0.45;;;;;;;3.41;98.76;99564.59;5100951;28;20028;-68
2023/11/14 07:13:36;;;;;;;0.80;0.73;;;;;;;3.47;98.99;99559.34;5100372;28;20390;-68
2023/11/14 07:16:01;;;;;;;1.25;0.70;;;;;;;3.56;98.54;99565.41;5101897;28;20032;-68
2023/11/14 07:18:27;;;;;;;0.85;0.65;;;;;;;3.56;98.25;99557.44;5099096;28;20057;-68
2023/11/14 07:20:54;;;;;;;0.88;0.70;;;;;;;3.33;98.44;99562.03;5099543;28;20802;-68
2023/11/14 07:23:20;;;;;;;1.15;0.40;;;;;;;3.38;98.31;99567.59;5097974;28;20113;-68
2023/11/14 07:25:47;;;;;;;0.80;0.60;;;;;;;3.18;98.84;99540.72;5100682;28;20195;-68
2023/11/14 07:28:12;;;;;;;0.60;0.60;;;;;;;3.46;98.72;99586.97;5100578;28;20020;-68
2023/11/14 07:30:38;;;;;;;1.85;0.60;;;;;;;3.53;98.24;99584.41;5101193;28;20046;-68
2023/11/14 07:33:04;;;;;;;0.90;0.60;;;;;;;3.65;97.78;99566.16;5099708;28;20039;-68
2023/11/14 07:35:30;;;;;;;0.80;0.52;;;;;;;3.27;98.12;99560.91;5099180;28;20422;-68
2023/11/14 07:37:57;;;;;;;0.75;0.60;;;;;;;3.35;97.72;99581.28;5098364;28;20129;-68
2023/11/14 07:40:23;;;;;;;0.50;0.50;;;;;;;3.59;97.30;99589.00;5097599;28;20025;-68
2023/11/14 07:42:49;;;;;;;0.73;0.60;;;;;;;3.49;97.69;99553.88;5100167;28;20031;-68
2023/11/14 07:45:14;;;;;;;0.50;0.47;;;;;;;3.49;97.04;99552.03;5080682;28;20032;-69
2023/11/14 07:47:40;;;;;;;0.60;0.50;;;;;;;3.51;97.82;99568.66;5096682;28;20035;-68
2023/11/14 07:50:06;;;;;;;1.35;0.50;;;;;;;3.30;98.45;99569.34;5097706;28;20031;-68
2023/11/14 07:52:32;;;;;;;0.80;0.50;;;;;;;3.37;98.30;99579.25;5097346;28;20028;-68
2023/11/14 07:55:02;;;;;;;1.52;0.50;;;;;;;3.52;97.44;99572.94;5080762;28;20032;-68
2023/11/14 07:57:28;;;;;;;1.02;0.40;;;;;;;3.45;97.58;99577.34;5098460;28;20032;-68
2023/11/14 07:59:53;;;;;;;0.68;0.40;;;;;;;3.82;95.66;99582.75;5097877;28;20090;-68
2023/11/14 08:02:19;;;;;;;0.50;0.35;;;;;;;3.70;96.99;99587.69;5099350;28;20035;-68
2023/11/14 08:04:45;;;;;;;0.50;0.50;;;;;;;3.61;95.98;99592.31;5098740;28;20254;-68
2023/11/14 08:07:10;;;;;;;0.77;0.50;;;;;;;3.41;95.80;99551.28;5097091;28;20044;-68
2023/11/14 08:09:36;;;;;;;0.52;0.40;;;;;;;3.66;96.00;99583.75;5096940;28;20514;-68
2023/11/14 08:12:01;;;;;;;0.70;0.50;;;;;;;3.91;95.55;99587.78;5098174;28;20497;-68
2023/11/14 08:14:27;;;;;;;0.60;0.50;;;;;;;3.62;95.90;99580.66;5064916;28;20035;-68
2023/11/14 08:16:53;;;;;;;0.60;0.60;;;;;;;3.60;96.56;99593.28;5099126;28;20027;-68
2023/11/14 08:19:18;;;;;;;0.50;0.50;;;;;;;3.60;96.57;99580.00;5097703;28;20097;-68
2023/11/14 08:21:44;;;;;;;1.48;0.73;;;;;;;3.70;96.56;99596.50;5081527;28;20063;-68
2023/11/14 08:24:09;;;;;;;2.30;0.80;;;;;;;3.90;94.66;99614.56;5100172;28;20085;-67
2023/11/14 08:26:35;;;;;;;0.85;0.77;;;;;;;3.76;96.03;99621.56;5099463;28;20053;-68
2023/11/14 08:29:00;;;;;;;0.85;0.70;;;;;;;3.82;95.75;99604.84;5099949;28;20035;-68
2023/11/14 08:31:26;;;;;;;1.00;0.90;;;;;;;3.94;95.26;99602.53;5100003;28;20032;-68
2023/11/14 08:33:52;;;;;;;1.05;0.80;;;;;;;4.06;94.22;99610.88;5081648;28;20502;-68
2023/11/14 08:36:18;;;;;;;1.45;1.10;;;;;;;4.02;95.39;99618.41;5098152;28;20028;-68
2023/11/14 08:38:43;;;;;;;1.08;0.80;;;;;;;3.91;95.24;99613.56;5099695;28;20028;-68
2023/11/14 08:41:08;;;;;;;1.42;1.00;;;;;;;3.91;95.54;99625.03;5098251;28;20098;-68
2023/11/14 08:43:35;;;;;;;1.00;0.88;;;;;;;3.86;96.24;99614.09;5098444;28;20028;-68
2023/11/14 08:46:00;;;;;;;1.10;0.80;;;;;;;4.06;94.41;99626.84;5098563;28;20070;-68
2023/11/14 08:48:26;;;;;;;1.02;0.80;;;;;;;4.25;93.98;99626.28;5098847;28;20059;-68
2023/11/14 08:50:51;;;;;;;0.70;0.70;;;;;;;3.96;94.10;99616.50;5100089;28;20024;-68
2023/11/14 08:53:17;;;;;;;1.13;0.80;;;;;;;4.03;93.67;99654.66;5098266;28;20043;-68
2023/11/14 08:55:42;;;;;;;0.73;0.70;;;;;;;4.18;93.43;99623.53;5098554;28;20480;-68
2023/11/14 08:58:08;;;;;;;1.30;0.85;;;;;;;3.85;93.73;99630.28;5097844;28;20052;-68
2023/11/14 09:00:35;;;;;;;0.50;0.50;;;;;;;4.30;92.70;99613.19;5098982;28;20479;-68
2023/11/14 09:03:01;;;;;;;2.13;0.57;;;;;;;4.41;91.45;99641.22;5098053;28;20028;-68
2023/11/14 09:05:27;;;;;;;0.50;0.50;;;;;;;4.09;93.28;99642.47;5097720;28;20470;-68
2023/11/14 09:07:53;;;;;;;1.73;0.55;;;;;;;4.12;93.05;99632.25;5097407;28;20028;-68
2023/11/14 09:10:19;;;;;;;0.45;0.43;;;;;;;4.31;93.11;99638.03;5095488;28;20024;-68
2023/11/14 09:12:45;;;;;;;0.77;0.43;;;;;;;4.32;91.92;99640.47;5076800;28;20410;-68
2023/11/14 09:15:13;;;;;;;2.88;0.40;;;;;;;4.30;92.30;99641.69;5099328;28;20028;-68
2023/11/14 09:17:39;;;;;;;0.98;0.47;;;;;;;4.19;91.95;99649.13;5097851;28;20055;-68
2023/11/14 09:20:06;;;;;;;1.85;0.40;;;;;;;4.00;92.71;99649.69;5082599;28;20053;-68
2023/11/14 09:22:31;;;;;;;1.40;0.50;;;;;;;4.25;92.00;99636.91;5081553;28;20032;-68
2023/11/14 09:24:56;;;;;;;0.50;0.38;;;;;;;4.10;91.84;99666.22;5099027;28;20032;-68
2023/11/14 09:27:25;;;;;;;1.25;0.32;;;;;;;4.13;90.63;99676.50;5081479;28;20486;-68
2023/11/14 09:29:50;;;;;;;0.40;0.40;;;;;;;3.96;91.41;99670.53;5099551;28;20099;-68
2023/11/14 09:32:19;;;;;;;0.60;0.43;;;;;;;4.33;91.55;99659.94;5102849;28;20055;-68
2023/11/14 09:34:45;;;;;;;0.40;0.38;;;;;;;4.23;90.44;99681.53;5104316;28;20027;-68
2023/11/14 09:37:11;;;;;;;0.57;0.40;;;;;;;4.29;90.85;99672.81;5119219;28;20028;-68
2023/11/14 09:39:36;;;;;;;0.60;0.38;;;;;;;4.37;90.46;99683.38;5102594;28;20035;-68
2023/11/14 09:42:02;;;;;;;1.73;0.40;;;;;;;4.26;90.58;99685.69;5101345;28;20035;-68
2023/11/14 09:44:28;;;;;;;0.38;0.30;;;;;;;4.24;90.00;99685.88;5101256;28;20046;-68
2023/11/14 09:46:55;;;;;;;0.40;0.30;;;;;;;3.97;91.51;99687.34;5100411;28;20498;-68
2023/11/14 09:49:21;;;;;;;0.32;0.32;;;;;;;3.98;91.51;99700.47;5066438;28;20026;-68
2023/11/14 09:51:50;;;;;;;0.95;0.40;;;;;;;4.06;92.03;99682.75;5104640;28;20054;-68
2023/11/14 09:54:16;;;;;;;0.30;0.30;;;;;;;4.30;91.85;99689.59;5103815;28;20043;-68
2023/11/14 09:56:47;;;;;;;0.82;0.43;;;;;;;4.09;92.04;99683.22;5100937;28;20479;-68
2023/11/14 09:59:13;;;;;;;0.95;0.30;;;;;;;4.46;90.11;99687.56;5099929;28;20076;-68
2023/11/14 10:01:40;;;;;;;0.40;0.32;;;;;;;4.30;89.50;99697.59;5098842;28;20031;-68
2023/11/14 10:04:06;;;;;;;0.40;0.32;;;;;;;4.17;90.07;99692.91;5100007;28;20340;-68
2023/11/14 10:06:34;;;;;;;0.30;0.20;;;;;;;4.00;91.00;99686.97;5095465;28;20024;-68
2023/11/14 10:09:01;;;;;;;0.95;0.38;;;;;;;4.06;90.54;99670.25;5100969;28;20079;-68
2023/11/14 10:11:40;;;;;;;0.30;0.25;;;;;;;4.34;89.33;99705.06;5100594;28;20236;-68
2023/11/14 10:14:06;;;;;;;0.50;0.50;;;;;;;4.09;90.45;99703.69;5100992;28;20069;-68
2023/11/14 10:16:31;;;;;;;0.30;0.30;;;;;;;4.15;90.18;99677.16;5102826;28;20028;-68
2023/11/14 10:18:57;;;;;;;0.30;0.30;;;;;;;4.22;89.69;99663.91;5102035;28;20059;-68
2023/11/14 10:21:27;;;;;;;0.25;0.20;;;;;;;4.33;89.42;99683.91;5102214;28;20028;-68
2023/11/14 10:23:55;;;;;;;0.70;0.38;;;;;;;4.18;89.33;99698.09;5103234;28;20607;-68
2023/11/14 10:26:21;;;;;;;0.40;0.30;;;;;;;4.05;90.67;99667.81;5101925;28;20032;-68
2023/11/14 10:29:02;;;;;;;0.40;0.30;;;;;;;4.08;90.05;99702.88;5103434;28;20024;-68
2023/11/14 10:31:36;;;;;;;0.35;0.30;;;;;;;4.42;89.63;99685.47;5103348;28;20028;-68
2023/11/14 10:34:06;;;;;;;0.20;0.20;;;;;;;4.36;89.10;99687.03;5102347;28;20020;-68
2023/11/14 10:36:46;;;;;;;0.40;0.35;;;;;;;4.38;89.82;99687.69;5102816;28;20105;-68
2023/11/14 10:39:11;;;;;;;0.50;0.40;;;;;;;4.33;88.74;99687.41;5103331;28;20062;-68
2023/11/14 10:41:37;;;;;;;0.40;0.30;;;;;;;4.34;88.53;99693.53;5101464;28;20023;-68
2023/11/14 10:44:10;;;;;;;0.20;0.20;;;;;;;4.10;89.25;99714.13;5100524;28;20032;-68
2023/11/14 10:46:36;;;;;;;0.30;0.20;;;;;;;4.43;87.98;99692.44;5102821;28;20085;-68
2023/11/14 10:49:03;;;;;;;0.15;0.10;;;;;;;4.16;88.30;99676.13;5102308;28;20024;-68
2023/11/14 10:51:35;;;;;;;1.95;0.30;;;;;;;4.54;87.95;99691.97;5101959;28;20020;-68
2023/11/14 10:54:05;;;;;;;0.45;0.30;;;;;;;4.47;88.59;99705.22;5102206;28;20055;-68
2023/11/14 10:56:31;;;;;;;0.30;0.20;;;;;;;4.48;88.41;99711.38;5102411;28;20046;-68
2023/11/14 10:58:57;;;;;;;0.50;0.32;;;;;;;4.48;88.10;99682.06;5101939;28;20457;-68
2023/11/14 11:01:24;;;;;;;0.80;0.45;;;;;;;4.63;88.50;99698.00;5102606;28;20127;-68
2023/11/14 11:03:54;;;;;;;0.50;0.32;;;;;;;4.80;86.94;99682.59;5084773;28;20096;-68
2023/11/14 11:06:19;;;;;;;0.68;0.50;;;;;;;4.62;87.97;99702.50;5102275;28;20038;-68
2023/11/14 11:08:44;;;;;;;0.98;0.50;;;;;;;4.57;88.79;99704.06;5101929;28;20048;-68
2023/11/14 11:11:11;;;;;;;0.70;0.40;;;;;;;4.35;89.35;99721.84;5101722;28;20475;-68
2023/11/14 11:13:38;;;;;;;0.85;0.60;;;;;;;4.54;89.12;99701.81;5100929;28;20028;-68
2023/11/14 11:16:04;;;;;;;1.13;0.60;;;;;;;4.26;89.39;99689.16;5099485;28;20032;-68
2023/11/14 11:18:34;;;;;;;0.70;0.40;;;;;;;4.28;90.32;99723.59;5099771;28;20182;-68
2023/11/14 11:21:11;;;;;;;0.70;0.52;;;;;;;4.47;90.60;99721.19;5099532;28;20024;-68
2023/11/14 11:24:12;;;;;;;0.73;0.50;;;;;;;4.68;89.53;99717.75;5098974;28;20088;-68
2023/11/14 11:27:22;;;;;;;0.82;0.73;;;;;;;4.47;90.26;99733.69;5099084;28;20056;-68
2023/11/14 11:29:49;;;;;;;0.70;0.60;;;;;;;4.43;90.37;99729.72;5099263;28;20024;-68
2023/11/14 11:32:34;;;;;;;0.95;0.70;;;;;;;4.51;90.49;99729.63;5100246;28;20102;-68